Time;durP1;ratioP1;P1;durP2;ratioP2;P2;SDS_P1;SDS_P2;PMS_P1;PMS_P2;Temp;Humidity;BMP_temperature;BMP_pressure;BME280_temperature;BME280_humidity;BME280_pressure;Samples;Min_cycle;Max_cycle;Signal;HPM_P1;HPM_P2
2021/07/07 00:00:35;;;;;;;11.05;4.82;;;;;;;26.98;62.15;100537.09;6243050;22;20044;-68
2021/07/07 00:03:04;;;;;;;10.70;5.63;;;;;;;26.96;61.97;100525.47;6243215;22;20043;-68
2021/07/07 00:05:31;;;;;;;7.75;4.93;;;;;;;26.98;61.62;100521.81;6243105;22;20016;-68
2021/07/07 00:08:00;;;;;;;10.57;5.43;;;;;;;26.97;61.69;100526.34;6242230;22;20016;-67
2021/07/07 00:10:32;;;;;;;9.60;4.97;;;;;;;26.92;61.79;100529.31;6242551;22;20078;-68
2021/07/07 00:13:00;;;;;;;9.32;5.45;;;;;;;26.89;61.26;100523.19;6242366;22;20073;-67
2021/07/07 00:15:31;;;;;;;11.15;5.75;;;;;;;26.92;61.62;100518.47;6243377;22;20454;-68
2021/07/07 00:18:01;;;;;;;7.82;4.78;;;;;;;26.95;61.52;100514.72;6243356;22;20527;-67
2021/07/07 00:20:35;;;;;;;8.93;5.00;;;;;;;26.96;61.03;100522.78;6243083;22;20016;-67
2021/07/07 00:23:04;;;;;;;9.23;4.93;;;;;;;26.93;61.07;100517.50;6242315;22;20020;-67
2021/07/07 00:25:31;;;;;;;8.00;4.75;;;;;;;26.93;60.78;100520.22;6242741;22;20016;-68
2021/07/07 00:27:59;;;;;;;11.43;4.57;;;;;;;26.94;59.96;100519.25;6242716;22;20078;-67
2021/07/07 00:30:28;;;;;;;11.65;4.80;;;;;;;26.95;59.38;100520.13;6242912;22;20020;-68
2021/07/07 00:32:56;;;;;;;7.10;4.50;;;;;;;26.93;59.47;100512.09;6242760;22;20083;-67
2021/07/07 00:35:24;;;;;;;8.38;4.32;;;;;;;26.91;60.11;100519.41;6243112;22;20019;-68
2021/07/07 00:37:53;;;;;;;11.07;4.97;;;;;;;26.93;59.98;100520.22;6241339;22;20012;-68
2021/07/07 00:40:21;;;;;;;8.15;4.55;;;;;;;26.89;59.65;100507.81;6242353;22;20023;-67
2021/07/07 00:42:49;;;;;;;10.45;4.93;;;;;;;26.90;59.67;100503.28;6242335;22;20082;-67
2021/07/07 00:45:17;;;;;;;8.13;4.68;;;;;;;26.86;60.15;100510.66;6243585;22;20023;-67
2021/07/07 00:47:45;;;;;;;11.65;5.50;;;;;;;26.81;60.98;100518.16;6242690;22;20025;-68
2021/07/07 00:50:14;;;;;;;9.27;5.28;;;;;;;26.81;61.01;100520.88;6242628;22;20012;-68
2021/07/07 00:52:42;;;;;;;10.82;5.43;;;;;;;26.80;60.69;100518.25;6242027;22;20027;-67
2021/07/07 00:55:15;;;;;;;10.07;5.28;;;;;;;26.78;60.94;100514.75;6242713;22;20070;-67
2021/07/07 00:57:44;;;;;;;7.45;4.80;;;;;;;26.78;61.27;100522.88;6241556;22;20468;-67
2021/07/07 01:00:14;;;;;;;8.05;5.10;;;;;;;26.80;60.89;100520.94;6242890;22;20024;-67
2021/07/07 01:02:44;;;;;;;11.15;4.88;;;;;;;26.77;60.58;100527.44;6242013;22;20020;-68
2021/07/07 01:05:13;;;;;;;8.45;5.03;;;;;;;26.78;60.61;100514.75;6242498;22;20024;-68
2021/07/07 01:07:42;;;;;;;8.07;4.80;;;;;;;26.80;61.08;100513.69;6242819;22;20043;-67
2021/07/07 01:10:14;;;;;;;6.93;4.93;;;;;;;26.80;61.62;100516.41;6242534;22;20016;-68
2021/07/07 01:12:42;;;;;;;7.63;5.18;;;;;;;26.74;61.83;100513.16;6242227;22;20016;-68
2021/07/07 01:15:11;;;;;;;8.40;5.85;;;;;;;26.74;61.63;100522.16;6242557;22;20319;-68
2021/07/07 01:17:38;;;;;;;10.80;5.50;;;;;;;26.73;62.47;100506.88;6242945;22;20009;-68
2021/07/07 01:20:09;;;;;;;8.27;4.85;;;;;;;26.76;61.92;100512.13;6242625;22;20012;-68
2021/07/07 01:22:39;;;;;;;10.30;5.35;;;;;;;26.75;61.37;100515.78;6242195;22;20013;-67
2021/07/07 01:25:08;;;;;;;8.35;5.35;;;;;;;26.72;61.46;100513.25;6242409;22;20054;-67
2021/07/07 01:27:36;;;;;;;9.23;5.03;;;;;;;26.71;61.44;100519.66;6242638;22;20024;-68
2021/07/07 01:30:05;;;;;;;8.93;5.00;;;;;;;26.70;61.87;100520.59;6242621;22;20042;-67
2021/07/07 01:32:33;;;;;;;9.18;5.35;;;;;;;26.69;61.88;100516.13;6241315;22;20028;-68
2021/07/07 01:35:00;;;;;;;11.48;5.07;;;;;;;26.66;62.02;100528.97;6242408;22;20389;-67
2021/07/07 01:37:28;;;;;;;11.18;5.07;;;;;;;26.68;61.50;100533.34;6242804;22;20047;-68
2021/07/07 01:39:57;;;;;;;10.60;4.75;;;;;;;26.66;61.46;100531.66;6242228;22;20032;-68
2021/07/07 01:42:25;;;;;;;9.27;5.13;;;;;;;26.64;61.86;100520.06;6242755;22;20320;-68
2021/07/07 01:44:53;;;;;;;12.10;5.68;;;;;;;26.63;62.35;100521.88;6242859;22;20086;-68
2021/07/07 01:47:21;;;;;;;10.10;5.70;;;;;;;26.61;63.44;100521.09;6241278;22;20013;-67
2021/07/07 01:49:48;;;;;;;14.55;6.10;;;;;;;26.62;63.63;100524.69;6242175;22;20016;-67
2021/07/07 01:52:15;;;;;;;12.90;6.00;;;;;;;26.66;64.18;100540.66;6242913;22;20055;-68
2021/07/07 01:54:43;;;;;;;11.45;6.40;;;;;;;26.65;64.62;100546.19;6241910;22;20039;-67
2021/07/07 01:57:12;;;;;;;11.82;5.82;;;;;;;26.63;65.54;100539.97;6242723;22;20083;-67
2021/07/07 01:59:40;;;;;;;10.90;5.80;;;;;;;26.62;65.61;100543.63;6241642;22;20020;-68
2021/07/07 02:02:08;;;;;;;10.10;5.88;;;;;;;26.64;65.10;100541.72;6242739;22;20100;-67
2021/07/07 02:04:35;;;;;;;11.68;6.35;;;;;;;26.61;65.24;100548.16;6242309;22;20063;-67
2021/07/07 02:07:03;;;;;;;11.73;5.90;;;;;;;26.64;65.50;100542.59;6243098;22;20024;-67
2021/07/07 02:09:31;;;;;;;10.40;6.30;;;;;;;26.64;65.55;100539.91;6243978;22;20027;-68
2021/07/07 02:11:59;;;;;;;13.90;5.80;;;;;;;26.62;65.22;100538.22;6244367;22;20032;-67
2021/07/07 02:14:28;;;;;;;11.38;6.03;;;;;;;26.61;65.03;100541.88;6243492;22;20074;-67
2021/07/07 02:16:56;;;;;;;11.88;6.15;;;;;;;26.58;65.52;100548.34;6244635;22;20009;-68
2021/07/07 02:19:24;;;;;;;14.35;6.32;;;;;;;26.57;65.42;100554.72;6244325;22;20035;-67
2021/07/07 02:21:51;;;;;;;14.10;6.32;;;;;;;26.57;64.99;100552.03;6243913;22;20012;-68
2021/07/07 02:24:19;;;;;;;12.65;6.10;;;;;;;26.57;65.65;100547.47;6244296;22;20020;-67
2021/07/07 02:26:46;;;;;;;9.23;5.88;;;;;;;26.57;65.13;100541.19;6244665;22;20078;-67
2021/07/07 02:29:14;;;;;;;11.07;5.97;;;;;;;26.54;64.75;100544.91;6244071;22;20019;-68
2021/07/07 02:31:43;;;;;;;9.85;5.05;;;;;;;26.54;65.01;100546.75;6243546;22;20070;-67
2021/07/07 02:34:11;;;;;;;10.13;5.30;;;;;;;26.56;64.54;100561.09;6243967;22;20016;-68
2021/07/07 02:36:38;;;;;;;7.85;5.38;;;;;;;26.55;64.62;100554.81;6243772;22;20342;-68
2021/07/07 02:39:06;;;;;;;8.45;5.10;;;;;;;26.52;64.22;100560.38;6243792;22;20336;-67
2021/07/07 02:41:33;;;;;;;11.38;5.90;;;;;;;26.52;64.11;100560.38;6243469;22;20017;-68
2021/07/07 02:44:01;;;;;;;10.80;5.65;;;;;;;26.49;64.07;100552.44;6243284;22;20016;-68
2021/07/07 02:46:28;;;;;;;10.35;5.22;;;;;;;26.48;64.02;100547.97;6244122;22;20020;-67
2021/07/07 02:48:58;;;;;;;11.27;5.20;;;;;;;26.50;63.71;100546.06;6243488;22;20039;-67
2021/07/07 02:51:25;;;;;;;11.57;5.47;;;;;;;26.47;64.06;100543.50;6243699;22;20070;-67
2021/07/07 02:53:53;;;;;;;9.27;5.18;;;;;;;26.46;63.89;100554.41;6243504;22;20066;-67
2021/07/07 02:56:23;;;;;;;9.45;5.95;;;;;;;26.46;64.53;100555.28;6244292;22;20020;-67
2021/07/07 02:58:50;;;;;;;7.72;5.38;;;;;;;26.47;64.21;100561.56;6242742;22;20016;-67
2021/07/07 03:01:18;;;;;;;8.43;5.63;;;;;;;26.45;64.06;100558.94;6243364;22;20020;-67
2021/07/07 03:03:46;;;;;;;9.27;5.80;;;;;;;26.43;64.27;100560.00;6243487;22;20023;-67
2021/07/07 03:06:15;;;;;;;11.25;5.32;;;;;;;26.44;64.18;100559.94;6244467;22;20490;-68
2021/07/07 03:08:43;;;;;;;8.45;5.32;;;;;;;26.42;64.19;100552.81;6243264;22;20381;-67
2021/07/07 03:11:11;;;;;;;11.65;5.22;;;;;;;26.42;64.48;100556.41;6243479;22;20026;-67
2021/07/07 03:13:39;;;;;;;8.82;5.00;;;;;;;26.41;64.42;100557.38;6242988;22;20012;-67
2021/07/07 03:16:07;;;;;;;10.20;5.85;;;;;;;26.40;63.96;100562.84;6243607;22;20012;-68
2021/07/07 03:18:34;;;;;;;10.95;5.35;;;;;;;26.44;63.85;100562.63;6242760;22;20016;-67
2021/07/07 03:21:02;;;;;;;12.23;5.38;;;;;;;26.47;63.30;100556.16;6243866;22;20465;-67
2021/07/07 03:23:31;;;;;;;10.10;5.05;;;;;;;26.51;63.54;100549.63;6243483;22;20078;-67
2021/07/07 03:25:59;;;;;;;10.60;5.47;;;;;;;26.51;63.60;100539.69;6243295;22;20044;-68
2021/07/07 03:28:27;;;;;;;9.65;5.05;;;;;;;26.56;63.13;100553.84;6243697;22;20043;-68
2021/07/07 03:30:55;;;;;;;11.20;5.35;;;;;;;26.65;62.96;100560.56;6243475;22;20012;-67
2021/07/07 03:33:23;;;;;;;10.88;4.90;;;;;;;26.74;63.02;100551.97;6242965;22;20024;-67
2021/07/07 03:35:51;;;;;;;10.82;4.93;;;;;;;26.84;63.04;100552.34;6243080;22;20114;-67
2021/07/07 03:38:18;;;;;;;8.80;4.65;;;;;;;26.92;62.64;100559.09;6243256;22;20020;-67
2021/07/07 03:40:48;;;;;;;11.95;5.15;;;;;;;27.01;62.47;100562.28;6243706;22;20023;-68
2021/07/07 03:43:16;;;;;;;14.90;4.95;;;;;;;27.10;62.50;100561.78;6244007;22;20077;-68
2021/07/07 03:45:43;;;;;;;8.10;4.93;;;;;;;27.17;62.75;100569.50;6242915;22;20020;-68
2021/07/07 03:48:11;;;;;;;9.10;4.97;;;;;;;27.29;62.04;100559.78;6243321;22;20024;-68
2021/07/07 03:50:39;;;;;;;10.02;5.13;;;;;;;27.42;61.77;100566.25;6242943;22;20044;-67
2021/07/07 03:53:07;;;;;;;9.95;5.35;;;;;;;27.51;62.07;100563.00;6242861;22;20047;-68
2021/07/07 03:55:35;;;;;;;11.82;5.18;;;;;;;27.62;61.70;100560.59;6243028;22;20070;-68
2021/07/07 03:58:05;;;;;;;10.65;5.32;;;;;;;27.74;61.57;100559.88;6243765;22;20012;-67
2021/07/07 04:00:33;;;;;;;7.25;5.07;;;;;;;27.88;61.62;100558.19;6241863;22;20031;-68
2021/07/07 04:03:01;;;;;;;12.55;4.85;;;;;;;28.02;60.87;100567.25;6243614;22;20039;-68
2021/07/07 04:05:29;;;;;;;9.98;4.78;;;;;;;28.15;60.53;100570.13;6243112;22;20031;-68
2021/07/07 04:07:57;;;;;;;9.25;4.80;;;;;;;28.23;60.14;100573.25;6242394;22;20015;-68
2021/07/07 04:10:25;;;;;;;12.82;4.90;;;;;;;28.38;59.69;100566.88;6242519;22;20458;-68
2021/07/07 04:12:53;;;;;;;15.20;4.75;;;;;;;28.50;59.80;100557.09;6243503;22;20027;-67
2021/07/07 04:15:22;;;;;;;9.65;4.50;;;;;;;28.62;59.38;100563.63;6240287;22;20022;-68
2021/07/07 04:17:50;;;;;;;8.98;4.50;;;;;;;28.73;58.94;100556.56;6243249;22;20027;-67
2021/07/07 04:20:20;;;;;;;9.20;4.47;;;;;;;28.85;58.54;100557.66;6243009;22;20016;-69
2021/07/07 04:22:48;;;;;;;10.45;4.93;;;;;;;28.99;58.08;100554.94;6242962;22;20016;-69
2021/07/07 04:25:15;;;;;;;10.88;5.13;;;;;;;29.07;57.41;100549.88;6242723;22;20716;-68
2021/07/07 04:27:44;;;;;;;7.68;4.30;;;;;;;29.24;56.89;100552.38;6242999;22;20035;-68
2021/07/07 04:30:15;;;;;;;9.55;4.45;;;;;;;29.46;56.52;100562.75;6242252;22;20020;-68
2021/07/07 04:32:44;;;;;;;7.32;4.25;;;;;;;29.66;55.59;100550.53;6242788;22;20012;-68
2021/07/07 04:35:13;;;;;;;7.75;4.57;;;;;;;29.80;55.27;100549.63;6241226;22;20046;-68
2021/07/07 04:37:41;;;;;;;8.77;4.43;;;;;;;29.95;55.01;100557.63;6243636;22;20012;-68
2021/07/07 04:40:10;;;;;;;9.20;4.63;;;;;;;30.14;54.58;100559.09;6242151;22;20020;-68
2021/07/07 04:42:37;;;;;;;7.68;4.40;;;;;;;30.31;52.98;100553.38;6242972;22;20031;-68
2021/07/07 04:45:07;;;;;;;10.05;4.20;;;;;;;30.47;52.52;100560.34;6242420;22;20040;-68
2021/07/07 04:47:35;;;;;;;9.55;4.15;;;;;;;30.65;52.05;100557.34;6243337;22;20024;-68
2021/07/07 04:50:04;;;;;;;8.75;4.28;;;;;;;30.78;51.73;100571.84;6241665;22;20081;-69
2021/07/07 04:52:32;;;;;;;8.65;4.00;;;;;;;30.92;51.11;100568.97;6242990;22;20213;-68
2021/07/07 04:55:00;;;;;;;10.20;3.97;;;;;;;31.15;50.11;100576.41;6241760;22;20074;-68
2021/07/07 04:57:27;;;;;;;9.50;4.18;;;;;;;31.43;50.04;100574.41;6242275;22;20091;-68
2021/07/07 04:59:55;;;;;;;7.82;4.35;;;;;;;31.64;49.23;100573.69;6242598;22;20016;-68
2021/07/07 05:02:23;;;;;;;8.27;4.10;;;;;;;31.86;48.55;100572.94;6242451;22;20024;-68
2021/07/07 05:04:52;;;;;;;8.25;4.07;;;;;;;32.06;48.07;100568.69;6241997;22;20039;-67
2021/07/07 05:07:21;;;;;;;7.13;4.43;;;;;;;32.32;47.55;100580.34;6242475;22;20085;-68
2021/07/07 05:09:48;;;;;;;7.68;4.15;;;;;;;32.51;46.91;100577.03;6242397;22;20020;-67
2021/07/07 05:12:16;;;;;;;7.47;3.88;;;;;;;32.51;46.91;100580.66;6242616;22;20043;-69
2021/07/07 05:14:44;;;;;;;12.07;3.78;;;;;;;32.50;46.76;100583.50;6242780;22;20043;-68
2021/07/07 05:17:13;;;;;;;7.90;4.13;;;;;;;32.52;46.42;100595.19;6242196;22;20043;-68
2021/07/07 05:19:40;;;;;;;11.63;4.10;;;;;;;32.61;46.56;100587.16;6242875;22;20016;-69
2021/07/07 05:22:08;;;;;;;8.98;4.10;;;;;;;32.76;46.92;100596.00;6242246;22;20074;-69
2021/07/07 05:24:37;;;;;;;7.20;3.70;;;;;;;33.04;46.34;100603.75;6241824;22;20012;-68
2021/07/07 05:27:05;;;;;;;5.88;3.95;;;;;;;33.05;45.90;100612.84;6242362;22;20023;-68
2021/07/07 05:29:33;;;;;;;12.95;4.35;;;;;;;33.19;45.90;100626.31;6242935;22;20016;-68
2021/07/07 05:32:00;;;;;;;8.65;4.60;;;;;;;33.30;45.78;100629.06;6241851;22;20024;-69
2021/07/07 05:34:29;;;;;;;7.50;3.97;;;;;;;33.44;44.85;100626.06;6242857;22;20024;-69
2021/07/07 05:36:57;;;;;;;7.95;3.97;;;;;;;33.68;44.27;100622.28;6242418;22;20012;-68
2021/07/07 05:39:24;;;;;;;7.40;3.70;;;;;;;33.93;43.85;100620.16;6242455;22;20070;-68
2021/07/07 05:41:53;;;;;;;13.43;4.20;;;;;;;33.94;43.36;100630.09;6243125;22;20020;-68
2021/07/07 05:44:21;;;;;;;8.35;4.00;;;;;;;34.17;42.80;100628.16;6244635;22;20012;-68
2021/07/07 05:46:48;;;;;;;9.32;4.28;;;;;;;34.45;42.56;100620.34;6244124;22;20638;-68
2021/07/07 05:49:16;;;;;;;5.88;3.70;;;;;;;34.50;42.62;100634.53;6244733;22;20028;-68
2021/07/07 05:51:44;;;;;;;10.02;4.70;;;;;;;34.83;41.56;100626.13;6243956;22;20083;-68
2021/07/07 05:54:11;;;;;;;6.45;3.80;;;;;;;34.78;40.52;100622.94;6244303;22;20016;-68
2021/07/07 05:56:39;;;;;;;8.10;4.15;;;;;;;34.85;40.36;100636.97;6243869;22;20020;-68
2021/07/07 05:59:09;;;;;;;9.25;3.70;;;;;;;35.04;39.15;100629.72;6243693;22;20016;-68
2021/07/07 06:01:36;;;;;;;5.82;3.35;;;;;;;35.21;39.06;100628.25;6244294;22;20013;-69
2021/07/07 06:04:04;;;;;;;8.70;4.43;;;;;;;35.34;39.10;100649.97;6244660;22;20016;-68
2021/07/07 06:06:32;;;;;;;7.70;3.88;;;;;;;35.49;39.19;100648.59;6243588;22;20042;-68
2021/07/07 06:08:59;;;;;;;8.13;4.20;;;;;;;35.59;38.45;100657.75;6244045;22;20020;-68
2021/07/07 06:11:26;;;;;;;14.57;5.00;;;;;;;35.49;37.93;100657.72;6244505;22;20019;-68
2021/07/07 06:13:54;;;;;;;5.60;3.60;;;;;;;35.47;37.78;100665.22;6244202;22;20364;-68
2021/07/07 06:16:23;;;;;;;7.85;3.88;;;;;;;35.67;37.99;100657.03;6244435;22;20024;-68
2021/07/07 06:18:50;;;;;;;6.03;3.72;;;;;;;35.59;37.72;100646.75;6244634;22;20074;-68
2021/07/07 06:21:19;;;;;;;8.55;3.90;;;;;;;35.61;37.79;100650.25;6244141;22;20435;-68
2021/07/07 06:23:46;;;;;;;10.73;4.47;;;;;;;35.58;37.85;100645.88;6244576;22;20039;-69
2021/07/07 06:26:14;;;;;;;7.32;3.80;;;;;;;35.45;38.06;100650.75;6243766;22;20059;-69
2021/07/07 06:28:44;;;;;;;6.72;4.35;;;;;;;35.44;37.70;100645.41;6241968;22;20461;-68
2021/07/07 06:31:11;;;;;;;8.05;3.47;;;;;;;35.43;37.81;100644.53;6243479;22;20024;-69
2021/07/07 06:33:40;;;;;;;9.63;3.67;;;;;;;35.53;37.76;100656.41;6243007;22;20012;-69
2021/07/07 06:36:08;;;;;;;6.28;3.95;;;;;;;35.58;37.81;100654.13;6244160;22;20016;-68
2021/07/07 06:38:36;;;;;;;7.88;4.00;;;;;;;35.58;37.93;100653.25;6243314;22;20031;-68
2021/07/07 06:41:03;;;;;;;8.85;3.95;;;;;;;35.58;37.85;100654.13;6241461;22;20016;-68
2021/07/07 06:43:31;;;;;;;5.68;3.65;;;;;;;35.65;37.76;100643.44;6243463;22;20012;-68
2021/07/07 06:45:58;;;;;;;6.65;3.05;;;;;;;35.34;38.46;100656.34;6244190;22;20015;-69
2021/07/07 06:48:26;;;;;;;6.63;4.03;;;;;;;35.22;38.92;100654.69;6242724;22;20349;-69
2021/07/07 06:50:55;;;;;;;7.82;3.70;;;;;;;35.32;39.04;100661.09;6244040;22;20036;-69
2021/07/07 06:53:25;;;;;;;10.10;4.03;;;;;;;35.45;39.08;100669.09;6242994;22;20082;-69
2021/07/07 06:55:53;;;;;;;10.15;3.78;;;;;;;35.41;39.30;100665.78;6244118;22;20036;-69
2021/07/07 06:58:21;;;;;;;6.85;3.88;;;;;;;35.49;38.99;100668.72;6243687;22;20016;-68
2021/07/07 07:00:48;;;;;;;7.63;3.63;;;;;;;35.64;38.85;100663.72;6243287;22;20350;-69
2021/07/07 07:03:16;;;;;;;7.45;3.50;;;;;;;35.81;39.07;100648.44;6242816;22;20016;-69
2021/07/07 07:05:44;;;;;;;6.95;3.30;;;;;;;35.81;38.96;100653.94;6243133;22;20429;-68
2021/07/07 07:08:16;;;;;;;7.95;3.53;;;;;;;35.86;38.53;100671.75;6243602;22;20024;-69
2021/07/07 07:10:43;;;;;;;6.75;3.75;;;;;;;35.79;38.45;100677.94;6235287;22;20059;-67
2021/07/07 07:13:13;;;;;;;8.75;4.18;;;;;;;35.82;38.27;100669.44;6235895;22;20071;-67
2021/07/07 07:15:41;;;;;;;8.00;3.42;;;;;;;35.74;38.57;100653.63;6237810;22;20246;-67
2021/07/07 07:18:09;;;;;;;7.53;3.90;;;;;;;35.85;38.38;100672.75;6238109;22;20016;-67
2021/07/07 07:20:37;;;;;;;7.05;3.58;;;;;;;35.86;38.25;100681.88;6240302;22;20024;-67
2021/07/07 07:23:05;;;;;;;5.18;3.50;;;;;;;35.97;38.53;100680.91;6239108;22;20020;-67
2021/07/07 07:25:36;;;;;;;7.95;3.45;;;;;;;35.92;38.47;100684.06;6234545;22;20074;-67
2021/07/07 07:28:06;;;;;;;8.77;4.03;;;;;;;35.80;38.90;100687.94;6233786;22;20023;-67
2021/07/07 07:30:34;;;;;;;8.18;3.88;;;;;;;35.82;38.79;100677.69;6239960;22;20375;-67
2021/07/07 07:33:01;;;;;;;5.70;3.20;;;;;;;35.75;38.75;100671.00;6238527;22;20040;-67
2021/07/07 07:35:29;;;;;;;8.73;4.15;;;;;;;35.82;38.65;100680.44;6239234;22;20016;-68
2021/07/07 07:38:02;;;;;;;10.00;3.75;;;;;;;35.99;38.21;100692.59;6238273;22;20533;-68
2021/07/07 07:40:35;;;;;;;10.27;3.92;;;;;;;35.97;38.10;100686.41;6240460;22;20086;-68
2021/07/07 07:43:05;;;;;;;9.80;3.80;;;;;;;35.85;38.54;100696.63;6240390;22;20019;-68
2021/07/07 07:45:34;;;;;;;5.38;3.17;;;;;;;36.03;38.07;100703.19;6240252;22;20406;-67
2021/07/07 07:48:02;;;;;;;13.82;3.70;;;;;;;36.20;37.67;100709.91;6239104;22;20458;-67
2021/07/07 07:50:30;;;;;;;10.25;3.60;;;;;;;36.28;37.44;100694.44;6240694;22;20031;-67
2021/07/07 07:52:57;;;;;;;6.55;3.45;;;;;;;36.22;37.62;100702.41;6239064;22;20039;-68
2021/07/07 07:55:26;;;;;;;8.52;3.47;;;;;;;36.19;37.68;100688.91;6239891;22;20094;-67
2021/07/07 07:57:53;;;;;;;11.35;3.50;;;;;;;36.19;37.87;100692.53;6238211;22;20039;-68
2021/07/07 08:00:24;;;;;;;5.75;3.83;;;;;;;36.15;37.74;100693.81;6239497;22;20550;-68
2021/07/07 08:02:54;;;;;;;7.85;4.40;;;;;;;35.92;37.93;100708.78;6238996;22;20020;-67
2021/07/07 08:05:22;;;;;;;7.20;3.45;;;;;;;35.99;37.93;100698.09;6239418;22;20013;-67
2021/07/07 08:07:51;;;;;;;12.95;3.75;;;;;;;35.96;38.28;100693.78;6238268;22;20078;-67
2021/07/07 08:10:21;;;;;;;6.07;3.30;;;;;;;35.90;38.42;100691.59;6238513;22;20024;-68
2021/07/07 08:12:49;;;;;;;8.43;3.70;;;;;;;35.95;38.13;100687.41;6239632;22;20016;-67
2021/07/07 08:15:17;;;;;;;8.07;4.43;;;;;;;36.15;37.89;100702.06;6240020;22;20016;-67
2021/07/07 08:17:47;;;;;;;7.45;3.30;;;;;;;36.31;37.75;100677.63;6239290;22;20016;-67
2021/07/07 08:20:15;;;;;;;9.57;3.72;;;;;;;36.33;37.30;100710.50;6238722;22;20488;-67
2021/07/07 08:22:42;;;;;;;6.70;3.60;;;;;;;36.44;37.16;100724.13;6238529;22;20016;-67
2021/07/07 08:25:12;;;;;;;7.60;3.55;;;;;;;36.52;37.07;100704.16;6240783;22;20028;-67
2021/07/07 08:27:39;;;;;;;6.63;3.38;;;;;;;36.46;36.88;100715.72;6241697;22;20074;-67
2021/07/07 08:30:10;;;;;;;9.07;3.55;;;;;;;36.64;36.82;100714.00;6240327;22;20095;-67
2021/07/07 08:32:38;;;;;;;6.15;3.28;;;;;;;36.72;36.58;100723.31;6241227;22;20016;-68
2021/07/07 08:35:11;;;;;;;8.07;3.83;;;;;;;36.73;36.74;100707.66;6236578;22;20020;-68
2021/07/07 08:37:39;;;;;;;9.75;3.30;;;;;;;36.66;36.48;100714.75;6241289;22;20023;-69
2021/07/07 08:40:08;;;;;;;8.00;3.83;;;;;;;36.68;36.61;100712.75;6239893;22;20082;-67
2021/07/07 08:42:37;;;;;;;7.00;3.20;;;;;;;36.80;36.60;100713.44;6241400;22;20089;-68
2021/07/07 08:45:07;;;;;;;9.77;3.72;;;;;;;36.99;36.49;100730.81;6246440;22;20007;-68
2021/07/07 08:47:37;;;;;;;9.98;3.35;;;;;;;37.15;36.09;100724.75;6242974;22;20024;-68
2021/07/07 08:50:09;;;;;;;8.27;3.13;;;;;;;37.21;36.07;100724.16;6239398;22;20012;-68
2021/07/07 08:52:39;;;;;;;8.95;3.70;;;;;;;37.15;35.81;100726.63;6241287;22;20016;-68
2021/07/07 08:55:09;;;;;;;7.03;4.20;;;;;;;37.16;35.57;100720.94;6241211;22;20008;-66
2021/07/07 08:57:43;;;;;;;5.55;3.78;;;;;;;36.91;35.23;100711.41;6241521;22;20020;-66
2021/07/07 09:00:13;;;;;;;7.22;3.83;;;;;;;36.92;35.32;100729.66;6240704;22;20020;-68
2021/07/07 09:02:49;;;;;;;6.38;3.50;;;;;;;36.94;35.39;100724.03;6239968;22;20048;-68
2021/07/07 09:05:19;;;;;;;7.88;3.60;;;;;;;36.62;35.04;100722.41;6237350;22;20030;-68
2021/07/07 09:07:46;;;;;;;6.80;4.15;;;;;;;36.54;35.40;100722.25;6241590;22;20381;-68
2021/07/07 09:10:18;;;;;;;8.95;3.65;;;;;;;36.63;35.40;100737.00;6238803;22;20023;-68
2021/07/07 09:12:46;;;;;;;8.88;3.55;;;;;;;36.70;35.30;100722.56;6238037;22;20036;-68
2021/07/07 09:15:19;;;;;;;8.80;3.80;;;;;;;36.85;35.09;100730.38;6240405;22;20027;-68
2021/07/07 09:17:49;;;;;;;8.75;3.55;;;;;;;36.95;34.94;100726.63;6230500;22;20074;-66
2021/07/07 09:20:21;;;;;;;4.65;3.22;;;;;;;36.93;35.12;100730.53;6230063;22;20095;-66
2021/07/07 09:22:51;;;;;;;8.93;3.75;;;;;;;36.89;35.20;100707.06;6243272;22;20020;-68
2021/07/07 09:25:28;;;;;;;6.85;3.78;;;;;;;36.93;35.05;100711.25;6244428;22;20016;-69
2021/07/07 09:27:58;;;;;;;6.90;3.50;;;;;;;37.08;35.04;100716.19;6243017;22;20016;-68
2021/07/07 09:30:25;;;;;;;6.68;3.53;;;;;;;37.19;34.61;100726.19;6242159;22;20047;-68
2021/07/07 09:32:53;;;;;;;6.65;3.30;;;;;;;37.30;34.17;100733.38;6242843;22;20016;-68
2021/07/07 09:35:22;;;;;;;11.00;3.90;;;;;;;37.40;33.55;100720.47;6242021;22;20023;-69
2021/07/07 09:37:55;;;;;;;5.15;3.83;;;;;;;37.46;33.47;100719.88;6242488;22;20012;-68
2021/07/07 09:40:23;;;;;;;6.78;3.70;;;;;;;37.46;33.20;100712.47;6240755;22;20023;-68
2021/07/07 09:42:52;;;;;;;8.93;3.75;;;;;;;37.37;33.24;100720.75;6243590;22;20020;-68
2021/07/07 09:45:22;;;;;;;9.45;3.72;;;;;;;37.40;33.27;100721.34;6237385;22;20031;-68
2021/07/07 09:47:50;;;;;;;10.70;4.18;;;;;;;37.29;33.49;100735.28;6224928;22;20054;-68
2021/07/07 09:50:19;;;;;;;8.88;3.72;;;;;;;37.12;33.57;100733.28;6224638;22;20020;-69
2021/07/07 09:52:48;;;;;;;7.85;3.75;;;;;;;37.06;33.95;100714.56;6225713;22;20020;-69
2021/07/07 09:55:16;;;;;;;9.18;4.03;;;;;;;37.04;34.12;100714.72;6243225;22;20027;-66
2021/07/07 09:57:48;;;;;;;7.38;3.53;;;;;;;36.96;34.20;100724.72;6243594;22;20039;-66
2021/07/07 10:00:18;;;;;;;9.15;3.58;;;;;;;36.94;34.21;100724.03;6243211;22;20016;-66
2021/07/07 10:02:48;;;;;;;11.30;3.75;;;;;;;36.93;34.12;100723.16;6213427;22;21014;-67
2021/07/07 10:05:17;;;;;;;6.88;3.78;;;;;;;36.82;34.43;100736.22;6236309;22;20455;-66
2021/07/07 10:07:46;;;;;;;9.00;4.32;;;;;;;36.61;34.97;100742.69;6243381;22;20381;-66
2021/07/07 10:10:17;;;;;;;8.77;4.03;;;;;;;36.49;35.07;100730.09;6243107;22;20457;-66
2021/07/07 10:12:46;;;;;;;9.43;3.63;;;;;;;36.50;35.42;100728.16;6239754;22;20350;-66
2021/07/07 10:15:15;;;;;;;6.72;4.45;;;;;;;36.44;35.65;100718.63;6243141;22;20024;-66
2021/07/07 10:17:43;;;;;;;10.35;3.72;;;;;;;36.40;35.91;100728.19;6240989;22;20039;-66
2021/07/07 10:20:13;;;;;;;7.10;3.70;;;;;;;36.50;35.69;100725.41;6239506;22;20028;-67
2021/07/07 10:22:42;;;;;;;7.22;3.97;;;;;;;36.22;36.18;100729.91;6242163;22;20052;-67
2021/07/07 10:25:14;;;;;;;7.55;3.83;;;;;;;36.17;36.31;100730.31;6242394;22;20039;-66
2021/07/07 10:27:43;;;;;;;8.88;4.47;;;;;;;36.15;36.60;100729.56;6243569;22;20028;-67
2021/07/07 10:30:12;;;;;;;6.70;4.20;;;;;;;35.96;36.88;100726.75;6243222;22;22764;-67
2021/07/07 10:32:40;;;;;;;7.78;3.83;;;;;;;35.88;37.26;100729.34;6241752;22;20028;-66
2021/07/07 10:35:09;;;;;;;8.40;4.00;;;;;;;35.90;37.24;100724.56;6243016;22;20017;-68
2021/07/07 10:37:39;;;;;;;8.98;4.00;;;;;;;35.76;37.39;100725.81;6243390;22;20020;-67
2021/07/07 10:40:26;;;;;;;8.13;3.58;;;;;;;35.80;37.44;100719.03;6242379;22;20385;-67
2021/07/07 10:42:56;;;;;;;12.85;4.47;;;;;;;35.90;37.22;100728.19;6226424;22;20023;-68
2021/07/07 10:45:38;;;;;;;9.30;4.32;;;;;;;35.94;37.23;100715.03;6242591;22;20035;-68
2021/07/07 10:48:27;;;;;;;7.97;4.20;;;;;;;36.02;37.18;100714.34;6242859;22;20390;-68
2021/07/07 10:50:55;;;;;;;9.63;4.05;;;;;;;36.07;37.18;100726.63;6243181;22;20095;-68
2021/07/07 10:53:25;;;;;;;9.38;4.28;;;;;;;36.20;37.06;100720.91;6241440;22;20016;-68
2021/07/07 10:55:54;;;;;;;7.63;4.03;;;;;;;36.20;36.68;100709.91;6242707;22;20019;-68
2021/07/07 10:58:29;;;;;;;9.65;4.30;;;;;;;36.31;36.53;100707.91;6242112;22;20024;-69
2021/07/07 11:00:59;;;;;;;9.77;4.20;;;;;;;36.25;36.27;100707.59;6241276;22;20023;-67
2021/07/07 11:03:35;;;;;;;9.10;4.13;;;;;;;36.25;36.30;100726.84;6242458;22;20024;-69
2021/07/07 11:06:28;;;;;;;7.40;4.28;;;;;;;36.26;36.65;100715.72;6242488;22;20020;-68
2021/07/07 11:09:11;;;;;;;8.15;3.80;;;;;;;36.39;36.27;100717.31;6212915;22;20397;-67
2021/07/07 11:11:39;;;;;;;10.25;3.85;;;;;;;36.50;36.07;100718.03;6243076;22;20016;-68
2021/07/07 11:14:17;;;;;;;7.78;3.92;;;;;;;36.67;36.16;100716.50;6237429;22;20024;-68
2021/07/07 11:16:54;;;;;;;11.43;4.00;;;;;;;36.69;36.00;100717.22;6240653;22;20020;-69
2021/07/07 11:19:47;;;;;;;9.95;3.90;;;;;;;36.74;35.33;100714.91;6237220;22;20020;-70
2021/07/07 11:22:16;;;;;;;8.13;3.80;;;;;;;36.96;34.96;100711.81;6242189;22;20416;-69
2021/07/07 11:24:46;;;;;;;8.27;4.30;;;;;;;37.10;34.90;100719.63;6242434;22;20454;-68
2021/07/07 11:27:13;;;;;;;8.85;4.28;;;;;;;37.16;35.10;100706.31;6241484;22;20016;-68
2021/07/07 11:29:44;;;;;;;9.02;4.55;;;;;;;37.19;35.62;100731.69;6242373;22;20493;-68